Time;durP1;ratioP1;P1;durP2;ratioP2;P2;SDS_P1;SDS_P2;PMS_P1;PMS_P2;Temp;Humidity;BMP_temperature;BMP_pressure;BME280_temperature;BME280_humidity;BME280_pressure;Samples;Min_cycle;Max_cycle;Signal;HPM_P1;HPM_P2
2023/12/02 05:42:23;;;;;;;1.75;1.30;;;17.20;56.70;;;;;;6129433;23;20198;31
2023/12/02 05:45:09;;;;;;;2.03;1.10;;;17.20;56.70;;;;;;6071253;23;20173;-82
2023/12/02 05:47:43;;;;;;;1.70;1.20;;;17.20;56.60;;;;;;6019851;23;20154;-83
2023/12/02 05:50:19;;;;;;;1.40;1.30;;;17.20;56.70;;;;;;6020938;23;20752;-84
2023/12/02 05:52:58;;;;;;;;;;;;;;;;;;;;;
2023/12/02 05:55:29;;;;;;;1.60;1.23;;;17.20;56.60;;;;;;6008368;23;20180;-84
2023/12/02 05:57:59;;;;;;;1.48;1.27;;;17.20;56.70;;;;;;6019059;23;20154;-83
2023/12/02 06:00:39;;;;;;;2.10;1.30;;;17.20;56.50;;;;;;6044120;23;20612;-83
2023/12/02 06:03:22;;;;;;;1.45;1.20;;;17.20;56.70;;;;;;5986009;24;20155;-84
2023/12/02 06:06:13;;;;;;;1.67;1.48;;;17.20;56.60;;;;;;5830146;24;20162;-83
2023/12/02 06:09:17;;;;;;;1.30;1.20;;;17.20;56.70;;;;;;5772509;24;20161;-83
2023/12/02 06:11:59;;;;;;;;;;;;;;;;;;;;;
2023/12/02 06:16:50;;;;;;;1.38;1.27;;;17.20;56.50;;;;;;6151789;23;20529;-85
2023/12/02 06:19:20;;;;;;;1.70;1.33;;;17.20;56.60;;;;;;6139881;23;20290;-83
2023/12/02 06:21:51;;;;;;;1.70;1.40;;;17.20;56.60;;;;;;6164093;23;20135;-83
2023/12/02 06:24:52;;;;;;;;;;;;;;;;;;;;;
2023/12/02 06:27:21;;;;;;;2.80;1.30;;;17.30;56.90;;;;;;6111722;23;20640;-83
2023/12/02 06:42:47;;;;;;;2.35;1.40;;;17.40;55.90;;;;;;6164607;23;20206;-82
2023/12/02 06:45:13;;;;;;;4.82;1.63;;;17.40;56.00;;;;;;6142165;23;20152;-82
2023/12/02 06:47:44;;;;;;;2.60;1.55;;;17.40;56.10;;;;;;6142107;23;20228;-82
2023/12/02 06:50:10;;;;;;;2.47;1.42;;;17.40;55.80;;;;;;6093236;23;20182;-82
2023/12/02 06:52:36;;;;;;;2.15;1.60;;;17.40;55.70;;;;;;6141948;23;20136;-83
2023/12/02 06:55:04;;;;;;;1.55;1.30;;;17.50;55.70;;;;;;6115085;23;20147;-84
2023/12/02 06:57:37;;;;;;;1.88;1.30;;;17.50;55.50;;;;;;6116255;23;20146;-84
2023/12/02 07:00:16;;;;;;;2.03;1.67;;;17.50;55.50;;;;;;6120126;23;20202;-84
2023/12/02 07:03:01;;;;;;;3.28;1.50;;;17.50;55.50;;;;;;6083145;23;20224;-85
2023/12/02 07:05:27;;;;;;;1.77;1.23;;;17.50;55.50;;;;;;6121934;23;20233;-83
2023/12/02 07:07:57;;;;;;;1.90;1.25;;;17.50;55.60;;;;;;6120476;23;20160;-86
2023/12/02 07:10:24;;;;;;;2.05;1.33;;;17.50;55.60;;;;;;6143128;23;20178;-84
2023/12/02 07:12:50;;;;;;;3.88;1.45;;;17.60;55.50;;;;;;6165954;23;20307;-84
2023/12/02 07:15:21;;;;;;;8.25;1.50;;;17.70;55.30;;;;;;6116383;23;20143;-84
2023/12/02 07:17:49;;;;;;;3.00;1.20;;;17.60;55.40;;;;;;6142565;23;20146;-85
2023/12/02 07:20:19;;;;;;;2.17;1.35;;;17.70;55.70;;;;;;6119822;23;20230;-85
2023/12/02 07:22:48;;;;;;;1.98;1.60;;;17.70;55.60;;;;;;6095796;23;20247;-86
2023/12/02 07:25:18;;;;;;;2.38;1.30;;;17.70;55.50;;;;;;6147098;23;20150;-86
2023/12/02 08:11:45;;;;;;;4.13;1.55;;;18.00;54.70;;;;;;6121717;23;20613;-83
2023/12/02 08:14:20;;;;;;;3.28;1.67;;;18.00;54.60;;;;;;6101624;23;20149;-82
2023/12/02 08:16:48;;;;;;;3.20;1.45;;;18.10;53.90;;;;;;6106016;23;20149;-81
2023/12/02 08:19:16;;;;;;;3.72;1.30;;;18.10;54.40;;;;;;6081113;23;20212;-82
2023/12/02 08:21:42;;;;;;;5.82;1.45;;;18.00;54.20;;;;;;6107271;23;20232;-83
2023/12/02 08:24:42;;;;;;;;;;;;;;;;;;;;;
2023/12/02 08:27:03;;;;;;;2.03;1.20;;;18.00;54.40;;;;;;6093069;23;20208;-84
2023/12/02 08:29:29;;;;;;;4.63;1.50;;;18.10;54.20;;;;;;6081821;23;20303;-83
2023/12/02 08:31:59;;;;;;;3.92;1.40;;;18.10;54.00;;;;;;6076698;23;20582;-84
2023/12/02 08:34:33;;;;;;;3.28;1.40;;;18.20;54.00;;;;;;5991179;24;20151;-85
2023/12/02 08:39:54;;;;;;;6.53;1.40;;;18.20;54.20;;;;;;5864142;24;20238;-83
2023/12/02 08:42:30;;;;;;;3.22;1.30;;;18.10;54.20;;;;;;5839001;24;20563;-82
2023/12/02 08:45:05;;;;;;;4.07;1.35;;;18.10;54.50;;;;;;5826421;24;20258;-83
2023/12/02 08:47:57;;;;;;;;;;;;;;;;;;;;;
2023/12/02 08:51:39;;;;;;;;;;;;;;;;;;;;;
2023/12/02 08:53:43;;;;;;;8.50;1.40;;;18.40;54.00;;;;;;5682930;25;20172;-83
2023/12/02 08:56:40;;;;;;;2.92;1.50;;;18.40;54.10;;;;;;5744808;25;20169;-82
2023/12/02 08:59:18;;;;;;;5.85;1.77;;;18.40;54.10;;;;;;5743155;25;20233;-82
2023/12/02 09:02:31;;;;;;;6.50;1.63;;;18.50;54.20;;;;;;5665337;25;20170;-82
2023/12/02 09:05:06;;;;;;;;;;;;;;;;;;;;;
2023/12/02 09:07:35;;;;;;;6.18;1.42;;;18.70;53.90;;;;;;5720801;25;20234;-83
2023/12/02 09:10:18;;;;;;;2.28;1.40;;;18.80;53.80;;;;;;5747055;24;20196;-82
2023/12/02 14:47:23;;;;;;;;;;;;;;;;;;;;;
2023/12/02 15:07:47;;;;;;;20.02;3.80;;;19.90;54.20;;;;;;6019391;23;20191;-82
2023/12/02 15:11:37;;;;;;;;;;;;;;;;;;;;;
2023/12/02 15:13:52;;;;;;;20.90;3.90;;;19.90;54.30;;;;;;5973501;24;20243;-84
2023/12/02 15:16:26;;;;;;;14.02;4.13;;;19.90;54.00;;;;;;5965481;24;20203;-82
2023/12/02 15:19:04;;;;;;;;;;;;;;;;;;;;;
2023/12/02 15:21:43;;;;;;;;;;;;;;;;;;;;;
2023/12/02 15:24:23;;;;;;;25.67;4.18;;;19.80;53.70;;;;;;6098311;23;20192;-82
2023/12/02 15:27:31;;;;;;;15.48;4.00;;;19.90;53.90;;;;;;6105519;23;20132;-82
2023/12/02 15:30:05;;;;;;;12.23;3.85;;;19.80;54.00;;;;;;5931699;24;20188;-84
2023/12/02 15:32:32;;;;;;;23.95;4.07;;;19.80;53.80;;;;;;5933747;24;20186;-83
2023/12/02 15:35:01;;;;;;;21.40;3.70;;;19.80;54.20;;;;;;5909556;24;20558;-82
2023/12/02 15:37:29;;;;;;;19.65;3.42;;;19.70;54.50;;;;;;5914724;24;20160;-84
2023/12/02 15:39:57;;;;;;;15.35;3.78;;;19.70;54.20;;;;;;5916809;24;20257;-82
2023/12/02 15:42:26;;;;;;;17.08;4.03;;;19.70;54.00;;;;;;5937333;24;20156;-84
2023/12/02 15:44:58;;;;;;;19.63;4.25;;;19.70;54.20;;;;;;5875555;24;20657;-82
2023/12/02 15:47:34;;;;;;;22.08;4.03;;;19.70;54.50;;;;;;5877797;24;20225;-83
2023/12/02 15:50:00;;;;;;;19.13;4.43;;;19.70;54.20;;;;;;5905430;24;20217;-84
2023/12/02 15:52:32;;;;;;;21.40;4.05;;;19.70;54.20;;;;;;5859552;24;20158;-82
2023/12/02 15:55:06;;;;;;;17.10;4.28;;;19.80;54.50;;;;;;5922901;24;20227;-85
2023/12/02 15:57:32;;;;;;;15.60;3.85;;;19.70;54.70;;;;;;5931140;24;20161;-81
2023/12/02 16:00:07;;;;;;;19.15;3.60;;;19.70;54.30;;;;;;5931821;24;20175;-82
2023/12/02 16:02:41;;;;;;;22.63;4.43;;;19.90;54.60;;;;;;5932690;24;20230;-81
2023/12/02 16:05:15;;;;;;;25.33;5.18;;;19.80;54.70;;;;;;5955536;24;20192;-82
2023/12/02 16:07:42;;;;;;;18.15;5.05;;;19.90;54.50;;;;;;6127250;23;20149;-83
2023/12/02 16:10:24;;;;;;;22.38;4.80;;;19.90;55.00;;;;;;6076312;23;20255;-82
2023/12/02 16:12:53;;;;;;;18.80;4.32;;;19.80;55.40;;;;;;6045119;23;20186;-81
2023/12/02 16:15:35;;;;;;;21.60;4.40;;;19.90;55.00;;;;;;6049005;23;20569;-84
2023/12/02 16:18:10;;;;;;;26.73;4.95;;;19.90;54.80;;;;;;6069559;23;20190;-83
2023/12/02 16:21:00;;;;;;;;;;;;;;;;;;;;;
2023/12/02 16:23:33;;;;;;;32.78;4.97;;;19.80;54.90;;;;;;6017315;23;20238;-84
2023/12/02 16:26:04;;;;;;;24.10;4.97;;;19.80;55.60;;;;;;5993747;23;20207;-85
2023/12/02 16:28:35;;;;;;;25.25;5.22;;;19.80;55.50;;;;;;5955292;23;20288;-84
2023/12/02 16:31:03;;;;;;;23.10;4.47;;;19.70;54.80;;;;;;5991956;23;20645;-82
2023/12/02 16:33:29;;;;;;;25.42;4.35;;;19.70;55.70;;;;;;5986819;23;20242;-81
2023/12/02 16:35:58;;;;;;;27.30;4.78;;;19.70;54.80;;;;;;5990605;23;20170;-82
2023/12/02 16:38:25;;;;;;;22.15;4.32;;;19.70;55.70;;;;;;5964547;23;20299;-81
2023/12/02 16:41:25;;;;;;;29.73;5.35;;;19.50;55.30;;;;;;5990408;23;20161;-83
2023/12/02 16:43:59;;;;;;;20.48;4.70;;;19.60;55.30;;;;;;5988235;23;20235;-85
2023/12/02 16:46:33;;;;;;;19.63;4.63;;;19.60;55.30;;;;;;5946368;23;20246;-85
2023/12/02 16:49:08;;;;;;;18.42;4.43;;;19.60;54.80;;;;;;5935406;24;20156;-84
2023/12/02 16:52:05;;;;;;;23.67;4.95;;;19.60;54.90;;;;;;5930105;24;20199;-85
2023/12/02 16:54:33;;;;;;;22.30;4.78;;;19.60;54.90;;;;;;5948709;24;20224;-84
2023/12/02 16:57:03;;;;;;;23.83;4.57;;;19.60;55.10;;;;;;5937434;24;20160;-83
2023/12/02 16:59:47;;;;;;;21.90;4.20;;;19.60;55.30;;;;;;5934991;24;20248;-83
2023/12/02 17:02:30;;;;;;;20.30;4.35;;;19.60;55.10;;;;;;5937995;24;20223;-84
2023/12/02 17:05:50;;;;;;;19.70;4.25;;;19.60;55.10;;;;;;5964732;23;20231;-84
2023/12/02 17:08:38;;;;;;;;;;;;;;;;;;;;;
2023/12/02 17:11:21;;;;;;;13.80;4.22;;;19.70;54.50;;;;;;5988395;23;20233;-84
2023/12/02 17:13:51;;;;;;;16.73;4.60;;;19.70;55.30;;;;;;5976150;23;20593;-84
2023/12/02 17:16:46;;;;;;;15.57;4.00;;;19.60;54.60;;;;;;5934119;24;20499;-83
2023/12/02 17:19:12;;;;;;;10.80;3.90;;;19.60;54.80;;;;;;5911113;24;20181;-81
2023/12/02 17:22:08;;;;;;;10.05;3.80;;;19.60;54.90;;;;;;5931693;24;20164;-83
2023/12/02 17:24:40;;;;;;;15.75;4.00;;;19.60;55.20;;;;;;5904991;24;20169;-83
2023/12/02 17:27:52;;;;;;;16.67;4.07;;;19.60;55.10;;;;;;5925673;24;20187;-82
2023/12/02 17:30:20;;;;;;;9.20;3.78;;;19.50;55.50;;;;;;5824052;24;20259;-82
2023/12/02 17:33:00;;;;;;;17.00;3.88;;;19.60;54.10;;;;;;5824339;24;20199;-81
2023/12/02 17:35:47;;;;;;;11.23;3.60;;;19.60;54.70;;;;;;5782001;24;20243;-82
2023/12/02 17:38:45;;;;;;;11.43;3.83;;;19.60;55.00;;;;;;5794673;24;20617;-84
2023/12/02 17:44:37;;;;;;;14.05;4.43;;;19.40;55.50;;;;;;5820704;24;20496;-84
2023/12/02 17:47:05;;;;;;;15.10;3.78;;;19.40;55.30;;;;;;5780468;24;20177;-82
2023/12/02 17:49:32;;;;;;;10.07;3.40;;;19.40;55.10;;;;;;5777792;24;20186;-81
2023/12/02 17:51:58;;;;;;;10.93;3.80;;;19.30;55.40;;;;;;5792714;24;20164;-81
2023/12/02 17:54:23;;;;;;;13.65;3.70;;;19.20;55.00;;;;;;5769762;24;20172;-82
2023/12/02 17:56:49;;;;;;;12.23;3.60;;;19.20;55.30;;;;;;5791008;24;20191;-81
2023/12/02 17:59:18;;;;;;;12.23;3.90;;;19.10;55.30;;;;;;5786324;24;20159;-81
2023/12/02 18:01:47;;;;;;;11.80;4.10;;;19.00;55.30;;;;;;5897975;24;20502;-82
2023/12/02 18:04:12;;;;;;;13.88;3.50;;;19.00;55.40;;;;;;5874603;24;20582;-80
2023/12/02 18:06:38;;;;;;;12.38;3.85;;;19.00;54.70;;;;;;5916090;23;20163;-81
2023/12/02 18:09:04;;;;;;;9.80;3.90;;;19.00;55.10;;;;;;6009784;23;20618;-82
2023/12/02 18:11:30;;;;;;;10.18;3.50;;;19.00;55.30;;;;;;6011838;23;20326;-81
2023/12/02 18:13:56;;;;;;;7.53;3.28;;;18.90;54.30;;;;;;5987962;23;20183;-81
2023/12/02 18:16:22;;;;;;;11.57;3.80;;;18.90;55.30;;;;;;5987301;23;20150;-82
2023/12/02 18:18:47;;;;;;;8.35;3.28;;;18.90;55.50;;;;;;5980229;23;20161;-82
2023/12/02 18:21:13;;;;;;;12.38;3.35;;;18.90;54.10;;;;;;6067276;23;20594;-81
2023/12/02 18:23:39;;;;;;;8.27;3.20;;;18.90;53.90;;;;;;6153617;23;20163;-80
2023/12/02 18:26:06;;;;;;;8.70;3.50;;;18.90;54.80;;;;;;6103740;23;20194;-81
2023/12/02 18:28:32;;;;;;;7.80;3.35;;;18.90;54.70;;;;;;6103611;23;20571;-82
2023/12/02 18:30:58;;;;;;;11.23;3.30;;;18.90;54.60;;;;;;6103539;23;20179;-82
2023/12/02 18:33:23;;;;;;;6.13;2.85;;;18.90;53.40;;;;;;6126725;23;20147;-82
2023/12/02 18:35:50;;;;;;;10.65;3.35;;;18.90;53.40;;;;;;6126169;23;20178;-83
2023/12/02 18:38:16;;;;;;;7.65;3.35;;;18.90;54.80;;;;;;6128121;23;20136;-82
2023/12/02 18:40:42;;;;;;;8.75;3.58;;;18.80;54.00;;;;;;6126663;23;20152;-82
2023/12/02 18:43:07;;;;;;;10.38;3.13;;;18.80;54.70;;;;;;6152385;23;20150;-81
2023/12/02 18:45:33;;;;;;;5.80;2.80;;;18.80;53.10;;;;;;6164051;23;20190;-81
2023/12/02 18:47:59;;;;;;;7.05;3.85;;;18.80;52.00;;;;;;6156540;23;20520;-82
2023/12/02 18:50:25;;;;;;;5.78;2.60;;;18.70;53.60;;;;;;6156783;23;20182;-82
2023/12/02 18:52:51;;;;;;;6.88;3.03;;;18.70;51.50;;;;;;6183189;23;20158;-82
2023/12/02 18:55:17;;;;;;;5.20;2.70;;;18.70;51.80;;;;;;6156815;23;20205;-83
2023/12/02 18:57:43;;;;;;;5.50;2.97;;;18.70;51.40;;;;;;6132663;23;20155;-82
2023/12/02 19:00:09;;;;;;;3.08;2.53;;;18.70;51.90;;;;;;6134081;23;20473;-82
2023/12/02 19:02:36;;;;;;;3.72;2.53;;;18.70;52.40;;;;;;6183241;23;20461;-82
2023/12/02 19:05:03;;;;;;;5.80;3.13;;;18.60;51.70;;;;;;6133938;23;20163;-81
2023/12/02 19:07:29;;;;;;;6.32;2.45;;;18.70;51.30;;;;;;6157481;23;20204;-81
2023/12/02 19:09:57;;;;;;;6.15;3.10;;;18.60;51.20;;;;;;6133174;23;20633;-82
2023/12/02 19:12:23;;;;;;;6.47;2.50;;;18.70;52.70;;;;;;6134609;23;20146;-83
2023/12/02 19:14:52;;;;;;;7.07;2.78;;;18.60;51.40;;;;;;6097804;23;20160;-82
2023/12/02 19:17:18;;;;;;;7.35;3.20;;;18.60;51.80;;;;;;6074451;23;20160;-83
2023/12/02 19:19:44;;;;;;;5.93;3.00;;;18.60;51.90;;;;;;6073221;23;20160;-81
2023/12/02 19:22:09;;;;;;;5.70;2.90;;;18.60;51.40;;;;;;6072348;23;20609;-82
2023/12/02 19:24:35;;;;;;;4.35;2.50;;;18.60;50.90;;;;;;6096600;23;20163;-82
2023/12/02 19:27:01;;;;;;;7.50;2.80;;;18.50;50.80;;;;;;6072234;23;20152;-83
2023/12/02 19:29:27;;;;;;;3.85;2.65;;;18.60;51.20;;;;;;6072479;23;20184;-81
2023/12/02 19:31:53;;;;;;;6.38;3.08;;;18.50;50.70;;;;;;6072262;23;20151;-82
2023/12/02 19:34:18;;;;;;;3.60;2.47;;;18.50;52.50;;;;;;6096249;23;20231;-81
2023/12/02 19:36:47;;;;;;;6.57;3.00;;;18.50;51.50;;;;;;6071077;23;20245;-83
2023/12/02 19:39:13;;;;;;;6.72;2.72;;;18.50;52.10;;;;;;6072752;23;20228;-82
2023/12/02 19:41:39;;;;;;;6.68;2.85;;;18.50;52.50;;;;;;6072551;23;20187;-82
2023/12/02 19:44:06;;;;;;;9.07;3.20;;;18.50;53.50;;;;;;6071570;23;20148;-82
2023/12/02 19:46:32;;;;;;;5.22;2.85;;;18.40;54.10;;;;;;6120394;23;20232;-83
2023/12/02 19:48:57;;;;;;;4.65;2.90;;;18.50;52.90;;;;;;6131589;23;20151;-83
2023/12/02 19:51:24;;;;;;;8.10;2.85;;;18.40;52.80;;;;;;6101230;23;20222;-83
2023/12/02 19:53:51;;;;;;;4.88;2.83;;;18.40;53.50;;;;;;6101134;23;20162;-81
2023/12/02 19:56:17;;;;;;;4.43;2.80;;;18.40;53.40;;;;;;6101997;23;20158;-82
2023/12/02 19:58:42;;;;;;;6.38;2.88;;;18.40;53.90;;;;;;6102741;23;20147;-82
2023/12/02 20:01:10;;;;;;;5.90;2.80;;;18.40;53.50;;;;;;6104409;23;20175;-81
2023/12/02 20:03:35;;;;;;;3.47;2.50;;;18.40;54.20;;;;;;6105016;23;20158;-81
2023/12/02 20:06:03;;;;;;;5.40;2.80;;;18.40;53.90;;;;;;6128999;23;20514;-83
2023/12/02 20:08:29;;;;;;;4.68;2.90;;;18.40;54.50;;;;;;6103781;23;20147;-83
2023/12/02 20:10:55;;;;;;;4.82;2.83;;;18.30;53.80;;;;;;6104325;23;20214;-82
2023/12/02 20:13:21;;;;;;;6.13;2.92;;;18.30;53.80;;;;;;6127405;23;20174;-82
2023/12/02 20:15:46;;;;;;;5.95;2.90;;;18.30;54.70;;;;;;6102245;23;20163;-83
2023/12/02 20:20:46;;;;;;;4.40;2.85;;;18.30;55.10;;;;;;6184582;23;20189;-81
2023/12/02 20:23:14;;;;;;;4.75;2.85;;;18.20;54.80;;;;;;6132951;23;20233;-80
2023/12/02 20:25:47;;;;;;;4.55;2.72;;;18.30;54.30;;;;;;6183611;23;20678;-83
2023/12/02 20:28:13;;;;;;;5.35;2.78;;;18.30;54.50;;;;;;6158572;23;20155;-82
2023/12/02 20:30:39;;;;;;;5.20;2.70;;;18.30;54.50;;;;;;6157503;23;20218;-82
2023/12/02 20:33:10;;;;;;;7.05;2.90;;;18.30;54.30;;;;;;6158900;23;20162;-82
2023/12/02 20:35:38;;;;;;;5.57;2.88;;;18.30;54.60;;;;;;6128899;23;20286;-81
2023/12/02 20:40:29;;;;;;;4.53;2.90;;;18.30;54.80;;;;;;6184025;23;20206;-82
2023/12/02 20:42:56;;;;;;;4.53;2.70;;;18.20;55.00;;;;;;6158792;23;20145;-83
2023/12/02 20:45:24;;;;;;;8.90;2.85;;;18.20;54.90;;;;;;6159643;23;20131;-82
2023/12/02 20:50:15;;;;;;;3.78;2.70;;;18.20;55.40;;;;;;6184829;23;20206;-83
2023/12/02 20:52:43;;;;;;;5.88;2.75;;;18.20;55.00;;;;;;6157886;23;20138;-82
2023/12/02 20:55:09;;;;;;;6.40;2.75;;;18.30;55.00;;;;;;6156918;23;20131;-83
2023/12/02 20:57:36;;;;;;;4.68;2.67;;;18.20;55.10;;;;;;6132235;23;20155;-82
2023/12/02 21:00:03;;;;;;;4.07;2.47;;;18.20;55.00;;;;;;6133008;23;20813;-82
2023/12/02 21:02:29;;;;;;;5.05;2.80;;;18.20;55.20;;;;;;6157689;23;20209;-83
2023/12/02 21:07:21;;;;;;;4.05;2.53;;;18.20;55.30;;;;;;6182095;23;20210;-82
2023/12/02 21:09:49;;;;;;;4.30;2.35;;;18.20;54.80;;;;;;6158706;23;20197;-83
2023/12/02 21:12:23;;;;;;;3.50;2.63;;;18.20;54.20;;;;;;6158353;23;20127;-81
2023/12/02 21:14:49;;;;;;;5.32;2.50;;;18.20;55.00;;;;;;6133426;23;20200;-82
2023/12/02 21:17:15;;;;;;;4.35;2.50;;;18.20;55.00;;;;;;6132633;23;20178;-81
2023/12/02 21:19:46;;;;;;;5.07;2.90;;;18.20;55.20;;;;;;6097768;23;20188;-83
2023/12/02 21:22:12;;;;;;;5.90;2.80;;;18.20;54.90;;;;;;6049657;23;20160;-82
2023/12/02 21:24:46;;;;;;;5.53;2.75;;;18.20;55.30;;;;;;6043734;23;20846;-83
2023/12/02 21:27:13;;;;;;;4.97;2.72;;;18.20;55.30;;;;;;6022044;23;20646;-82
2023/12/02 21:29:40;;;;;;;4.18;2.80;;;18.10;55.30;;;;;;6022142;23;20227;-82
2023/12/02 21:32:26;;;;;;;3.67;2.40;;;18.10;55.30;;;;;;6045709;23;20211;-83
2023/12/02 21:35:00;;;;;;;4.32;2.65;;;18.10;55.50;;;;;;6049036;23;20148;-81
2023/12/02 21:37:28;;;;;;;6.40;2.92;;;18.10;55.20;;;;;;6046639;23;20177;-82
2023/12/02 21:39:56;;;;;;;4.28;2.88;;;18.10;55.60;;;;;;6020619;23;20168;-83
2023/12/02 21:42:22;;;;;;;5.00;2.65;;;18.10;55.50;;;;;;6021812;23;20226;-82
2023/12/02 21:44:50;;;;;;;5.05;2.50;;;18.10;55.40;;;;;;6020166;23;20153;-82
2023/12/02 21:47:16;;;;;;;5.15;2.70;;;18.10;55.50;;;;;;6020213;23;20179;-82
2023/12/02 21:49:45;;;;;;;5.72;2.80;;;18.10;55.40;;;;;;5991329;23;20642;-82
2023/12/02 21:52:15;;;;;;;3.75;2.40;;;18.00;55.40;;;;;;5995590;23;20236;-83
2023/12/02 21:54:54;;;;;;;6.05;2.60;;;18.00;55.30;;;;;;6017519;23;20158;-82
2023/12/02 21:57:20;;;;;;;4.65;2.60;;;18.00;55.70;;;;;;6020211;23;20156;-83
2023/12/02 21:59:49;;;;;;;3.65;2.33;;;18.00;55.50;;;;;;6091914;23;20200;-83
2023/12/02 22:02:22;;;;;;;3.88;2.50;;;18.00;55.30;;;;;;6152499;23;20289;-83
2023/12/02 22:04:50;;;;;;;4.68;2.50;;;18.00;55.40;;;;;;6128212;23;20147;-81
2023/12/02 22:07:24;;;;;;;3.95;2.70;;;18.00;55.50;;;;;;6153318;23;20233;-82
2023/12/02 22:09:50;;;;;;;3.15;2.45;;;18.00;55.60;;;;;;6152890;23;20171;-83
2023/12/02 22:12:40;;;;;;;3.25;2.70;;;18.00;55.90;;;;;;6152383;23;20203;-84
2023/12/02 22:15:17;;;;;;;3.63;2.58;;;18.00;55.60;;;;;;6127605;23;20487;-84
2023/12/02 22:17:50;;;;;;;3.60;2.58;;;18.00;55.70;;;;;;6119626;23;20155;-84
2023/12/02 22:20:40;;;;;;;4.90;2.75;;;17.90;55.80;;;;;;6077211;23;20152;-83
2023/12/02 22:23:16;;;;;;;4.53;2.58;;;17.90;55.70;;;;;;6024987;23;20169;-83
2023/12/02 22:25:50;;;;;;;4.28;2.63;;;17.90;55.50;;;;;;6041121;23;20180;-83
2023/12/02 22:30:50;;;;;;;3.83;2.53;;;17.90;55.60;;;;;;6182730;23;20206;-84
2023/12/02 22:33:22;;;;;;;4.20;2.80;;;17.90;55.60;;;;;;6132897;23;20155;-83
2023/12/02 22:38:54;;;;;;;3.55;2.50;;;17.90;55.60;;;;;;6150409;23;20211;-83
2023/12/02 22:41:42;;;;;;;4.38;2.70;;;17.90;55.70;;;;;;6152531;23;20202;-82
2023/12/02 22:44:24;;;;;;;4.78;2.90;;;17.90;55.80;;;;;;6112990;23;20610;-82
2023/12/02 22:46:59;;;;;;;3.55;2.45;;;17.90;55.80;;;;;;5976379;23;20159;-83
2023/12/02 22:49:51;;;;;;;;;;;;;;;;;;;;;
2023/12/02 22:58:40;;;;;;;3.60;2.67;;;17.90;56.00;;;;;;6149709;23;20199;-84
2023/12/02 23:01:33;;;;;;;3.70;2.45;;;17.80;56.20;;;;;;6113029;23;20152;-83
2023/12/02 23:04:36;;;;;;;6.15;2.72;;;17.90;56.00;;;;;;6078608;23;20207;-84
2023/12/02 23:07:54;;;;;;;3.78;2.45;;;17.80;56.20;;;;;;6032239;23;20606;-84
2023/12/02 23:10:49;;;;;;;3.28;2.50;;;17.80;56.10;;;;;;5986421;23;20186;-84
2023/12/02 23:18:32;;;;;;;2.90;2.35;;;17.80;56.20;;;;;;6185789;23;20501;-82
2023/12/02 23:21:16;;;;;;;5.38;2.92;;;17.80;56.20;;;;;;6187300;23;20581;-84
2023/12/02 23:23:48;;;;;;;3.30;2.60;;;17.80;56.20;;;;;;6161192;23;20153;-82
2023/12/02 23:26:27;;;;;;;3.13;2.42;;;17.80;56.50;;;;;;6161115;23;20153;-83
2023/12/02 23:31:49;;;;;;;4.68;2.70;;;17.70;56.40;;;;;;6183264;23;20220;-83
2023/12/02 23:34:27;;;;;;;3.75;2.38;;;17.70;56.20;;;;;;6159613;23;20135;-82
2023/12/02 23:36:55;;;;;;;3.35;2.33;;;17.70;56.20;;;;;;6093226;23;20733;-83
2023/12/02 23:39:26;;;;;;;3.72;2.50;;;17.70;56.00;;;;;;6093425;23;20239;-83
2023/12/02 23:42:01;;;;;;;3.45;2.35;;;17.70;56.30;;;;;;6012415;23;20169;-82
2023/12/02 23:44:41;;;;;;;3.85;2.50;;;17.70;56.60;;;;;;6035979;23;20153;-83
2023/12/02 23:47:19;;;;;;;5.10;2.80;;;17.70;56.50;;;;;;5979140;24;20155;-83
2023/12/02 23:52:38;;;;;;;3.95;2.50;;;17.70;56.20;;;;;;6183307;23;20206;-83
2023/12/02 23:55:12;;;;;;;4.45;2.75;;;17.70;56.40;;;;;;6136975;23;20135;-82
2023/12/02 23:57:58;;;;;;;3.67;2.47;;;17.70;56.30;;;;;;6134116;23;20151;-83
